Time;durP1;ratioP1;P1;durP2;ratioP2;P2;SDS_P1;SDS_P2;PMS_P1;PMS_P2;Temp;Humidity;BMP_temperature;BMP_pressure;BME280_temperature;BME280_humidity;BME280_pressure;Samples;Min_cycle;Max_cycle;Signal;HPM_P1;HPM_P2
2022/12/15 00:40:04;;;;;;;105.13;30.40;;;;;;;;;;5074344;28;20339;-73
2022/12/15 00:42:31;;;;;;;106.22;30.10;;;;;;;;;;5074957;28;20623;-72
2022/12/15 00:44:58;;;;;;;101.03;31.10;;;;;;;;;;5075117;28;20207;-73
2022/12/15 00:47:26;;;;;;;101.00;29.73;;;;;;;;;;5075010;28;20642;-73
2022/12/15 01:20:18;;;;;;;101.15;30.05;;;;;;;;;;5073476;28;20307;-73
2022/12/15 01:22:46;;;;;;;100.85;30.23;;;;;;;;;;5074396;28;20595;-73
2022/12/15 01:25:13;;;;;;;107.35;31.48;;;;;;;;;;5074213;28;20213;-73
2022/12/15 01:27:40;;;;;;;108.13;31.33;;;;;;;;;;5074283;28;20201;-72
2022/12/15 01:30:09;;;;;;;104.03;30.40;;;;;;;;;;5073328;28;20620;-73
2022/12/15 01:32:36;;;;;;;107.13;29.83;;;;;;;;;;5074312;28;20210;-72
2022/12/15 01:35:04;;;;;;;100.20;29.05;;;;;;;;;;5074237;28;20301;-72
2022/12/15 01:37:32;;;;;;;101.65;30.08;;;;;;;;;;5073906;28;20205;-73
2022/12/15 01:42:59;;;;;;;103.60;29.83;;;;;;;;;;5031596;28;20230;-73
2022/12/15 01:45:59;;;;;;;99.57;29.33;;;;;;;;;;5031666;28;20202;-73
2022/12/15 01:48:35;;;;;;;99.75;28.85;;;;;;;;;;5031517;28;20225;-73
2022/12/15 01:51:06;;;;;;;105.85;31.08;;;;;;;;;;5031411;28;20273;-73
2022/12/15 01:53:38;;;;;;;106.72;31.50;;;;;;;;;;5031491;28;20672;-73
2022/12/15 01:56:06;;;;;;;99.95;29.58;;;;;;;;;;5031548;28;20211;-73
2022/12/15 01:58:33;;;;;;;100.72;29.45;;;;;;;;;;5030892;28;20368;-73
2022/12/15 02:01:01;;;;;;;101.38;28.80;;;;;;;;;;5031116;28;20226;-72
2022/12/15 02:03:29;;;;;;;106.60;30.38;;;;;;;;;;5031274;28;20233;-73
2022/12/15 02:05:58;;;;;;;99.22;28.88;;;;;;;;;;5031128;28;20210;-73
2022/12/15 02:08:25;;;;;;;98.85;29.77;;;;;;;;;;5031055;28;20206;-73
2022/12/15 02:11:03;;;;;;;105.00;31.13;;;;;;;;;;5030530;28;20229;-73
2022/12/15 02:13:32;;;;;;;97.45;28.73;;;;;;;;;;5044987;28;20209;-73
2022/12/15 02:16:03;;;;;;;100.57;30.08;;;;;;;;;;5073199;28;20292;-73
2022/12/15 02:18:33;;;;;;;100.72;28.90;;;;;;;;;;5072880;28;20227;-72
2022/12/15 02:21:03;;;;;;;102.43;29.20;;;;;;;;;;5069187;28;20776;-73
2022/12/15 02:23:49;;;;;;;99.75;29.20;;;;;;;;;;5073196;28;20699;-73
2022/12/15 02:26:34;;;;;;;100.28;30.50;;;;;;;;;;5072731;28;20240;-73
2022/12/15 02:29:12;;;;;;;103.75;30.65;;;;;;;;;;5072370;28;20212;-73
2022/12/15 02:31:50;;;;;;;103.53;30.00;;;;;;;;;;5072954;28;20597;-73
2022/12/15 02:34:22;;;;;;;106.63;29.92;;;;;;;;;;5072917;28;20240;-72
2022/12/15 02:36:50;;;;;;;105.43;29.65;;;;;;;;;;5073066;28;20216;-73
2022/12/15 02:39:18;;;;;;;103.13;30.17;;;;;;;;;;5071986;28;20205;-73
2022/12/15 02:41:47;;;;;;;100.30;30.80;;;;;;;;;;5072616;28;20228;-73
2022/12/15 02:44:18;;;;;;;104.68;30.65;;;;;;;;;;5072791;28;20209;-73
2022/12/15 02:46:54;;;;;;;104.00;30.95;;;;;;;;;;5072572;28;20205;-73
2022/12/15 02:49:24;;;;;;;105.78;31.00;;;;;;;;;;5071987;28;20211;-73
2022/12/15 02:51:55;;;;;;;112.18;30.10;;;;;;;;;;5072641;28;20202;-72
2022/12/15 02:54:38;;;;;;;104.72;28.38;;;;;;;;;;5072663;28;20205;-72
2022/12/15 02:57:11;;;;;;;106.07;30.15;;;;;;;;;;5072546;28;20724;-73
2022/12/15 02:59:43;;;;;;;104.68;30.17;;;;;;;;;;5071675;28;20206;-73
2022/12/15 03:02:13;;;;;;;100.32;30.02;;;;;;;;;;5072448;28;20228;-72
2022/12/15 03:04:44;;;;;;;106.28;30.95;;;;;;;;;;5072468;28;20673;-72
2022/12/15 03:07:11;;;;;;;103.18;30.35;;;;;;;;;;5072442;28;20692;-73
2022/12/15 03:09:38;;;;;;;100.15;29.75;;;;;;;;;;5071410;28;20205;-73
2022/12/15 03:12:05;;;;;;;102.50;29.45;;;;;;;;;;5072115;28;20582;-73
2022/12/15 03:14:33;;;;;;;101.88;29.98;;;;;;;;;;5072468;28;20598;-73
2022/12/15 03:17:00;;;;;;;101.82;29.27;;;;;;;;;;5072544;28;20583;-73
2022/12/15 03:19:29;;;;;;;103.68;29.77;;;;;;;;;;5071403;28;20206;-73
2022/12/15 03:21:56;;;;;;;102.30;29.27;;;;;;;;;;5072526;28;20247;-73
2022/12/15 03:24:23;;;;;;;99.43;30.25;;;;;;;;;;5071898;28;20202;-72
2022/12/15 03:26:50;;;;;;;100.20;29.15;;;;;;;;;;5072120;28;20587;-73
2022/12/15 03:29:17;;;;;;;106.22;31.60;;;;;;;;;;5071381;28;20308;-72
2022/12/15 03:31:44;;;;;;;102.30;30.70;;;;;;;;;;5072337;28;20225;-73
2022/12/15 03:34:12;;;;;;;104.32;29.25;;;;;;;;;;5071921;28;20205;-73
2022/12/15 03:36:40;;;;;;;102.57;29.27;;;;;;;;;;5071424;28;20215;-73
2022/12/15 03:39:07;;;;;;;105.80;30.30;;;;;;;;;;5070643;28;20229;-72
2022/12/15 03:41:35;;;;;;;104.78;30.55;;;;;;;;;;5071863;28;20231;-73
2022/12/15 03:44:02;;;;;;;101.85;29.50;;;;;;;;;;5071952;28;20302;-73
2022/12/15 03:46:29;;;;;;;107.60;28.20;;;;;;;;;;5071845;28;20220;-73
2022/12/15 03:48:57;;;;;;;108.75;30.75;;;;;;;;;;5071039;28;20201;-73
2022/12/15 03:51:24;;;;;;;103.70;29.25;;;;;;;;;;5071570;28;20634;-73
2022/12/15 03:53:53;;;;;;;97.88;27.95;;;;;;;;;;5071892;28;20588;-73
2022/12/15 03:56:20;;;;;;;100.25;27.27;;;;;;;;;;5071845;28;20237;-73
2022/12/15 03:58:47;;;;;;;101.47;29.25;;;;;;;;;;5070992;28;20646;-73
2022/12/15 04:01:20;;;;;;;106.45;31.52;;;;;;;;;;5071593;28;20225;-72
2022/12/15 04:03:47;;;;;;;96.72;28.17;;;;;;;;;;5071429;28;20715;-73
2022/12/15 04:06:14;;;;;;;106.30;30.48;;;;;;;;;;5071888;28;20205;-73
2022/12/15 04:08:41;;;;;;;102.13;29.70;;;;;;;;;;5070767;28;20205;-72
2022/12/15 04:11:10;;;;;;;101.43;27.42;;;;;;;;;;5071537;28;20316;-73
2022/12/15 04:13:37;;;;;;;107.07;29.00;;;;;;;;;;5071732;28;20291;-72
2022/12/15 04:16:04;;;;;;;103.55;28.17;;;;;;;;;;5071556;28;20205;-73
2022/12/15 04:18:31;;;;;;;102.88;29.63;;;;;;;;;;5070916;28;20211;-73
2022/12/15 04:20:57;;;;;;;100.95;28.92;;;;;;;;;;5071685;28;20231;-73
2022/12/15 04:23:25;;;;;;;103.07;29.95;;;;;;;;;;5071558;28;20312;-72
2022/12/15 05:31:59;;;;;;;101.78;27.20;;;;;;;;;;5074244;28;20255;-74
2022/12/15 05:34:28;;;;;;;100.47;28.80;;;;;;;;;;5074307;28;20209;-73
2022/12/15 05:36:56;;;;;;;102.75;29.45;;;;;;;;;;5074161;28;20227;-74
2022/12/15 05:39:24;;;;;;;102.10;28.02;;;;;;;;;;5073185;28;20646;-73
2022/12/15 05:41:51;;;;;;;99.22;26.13;;;;;;;;;;5073792;28;20580;-73
2022/12/15 05:44:18;;;;;;;104.85;29.77;;;;;;;;;;5074049;28;20213;-74
2022/12/15 05:46:46;;;;;;;104.68;32.50;;;;;;;;;;5073996;28;20599;-74
2022/12/15 05:49:14;;;;;;;102.28;32.10;;;;;;;;;;5073034;28;20209;-74
2022/12/15 05:51:44;;;;;;;104.57;31.50;;;;;;;;;;5073577;28;20736;-74
2022/12/15 05:54:11;;;;;;;101.72;29.80;;;;;;;;;;5073984;28;20207;-74
2022/12/15 05:56:38;;;;;;;98.40;28.02;;;;;;;;;;5073948;28;20204;-74
2022/12/15 05:59:06;;;;;;;99.38;28.70;;;;;;;;;;5073137;28;20209;-74
2022/12/15 06:01:34;;;;;;;101.72;30.10;;;;;;;;;;5072969;28;20248;-73
2022/12/15 06:04:01;;;;;;;102.20;29.65;;;;;;;;;;5073553;28;20229;-72
2022/12/15 06:06:28;;;;;;;97.40;30.05;;;;;;;;;;5073646;28;20587;-73
2022/12/15 06:08:57;;;;;;;108.38;29.77;;;;;;;;;;5072926;28;20201;-73
2022/12/15 06:11:24;;;;;;;107.95;33.97;;;;;;;;;;5073893;28;20236;-72
2022/12/15 06:13:51;;;;;;;109.00;33.75;;;;;;;;;;5063893;28;20194;-75
2022/12/15 06:16:19;;;;;;;108.68;33.20;;;;;;;;;;5063849;28;20684;-73
2022/12/15 06:18:49;;;;;;;101.60;31.58;;;;;;;;;;5072683;28;20205;-74
2022/12/15 06:21:17;;;;;;;104.78;32.55;;;;;;;;;;5064615;28;20761;-73
2022/12/15 06:23:45;;;;;;;107.25;31.95;;;;;;;;;;5063610;28;20620;-73
2022/12/15 06:26:14;;;;;;;107.63;32.65;;;;;;;;;;5073260;28;20217;-73
2022/12/15 06:28:42;;;;;;;107.07;30.48;;;;;;;;;;5072659;28;20205;-73
2022/12/15 06:31:10;;;;;;;108.65;32.35;;;;;;;;;;5072980;28;20225;-73
2022/12/15 06:33:38;;;;;;;103.13;31.05;;;;;;;;;;5073164;28;20205;-73
2022/12/15 06:36:05;;;;;;;102.68;30.45;;;;;;;;;;5073054;28;20301;-73
2022/12/15 06:38:33;;;;;;;102.68;29.88;;;;;;;;;;5072813;28;20201;-73
2022/12/15 06:41:01;;;;;;;110.95;31.88;;;;;;;;;;5072961;28;20225;-73
2022/12/15 06:43:30;;;;;;;101.13;28.85;;;;;;;;;;5072866;28;20237;-73
2022/12/15 06:45:57;;;;;;;97.47;28.48;;;;;;;;;;5072870;28;20304;-73
2022/12/15 06:48:24;;;;;;;112.25;30.45;;;;;;;;;;5072642;28;20205;-73
2022/12/15 06:50:52;;;;;;;102.10;29.45;;;;;;;;;;5071810;28;20231;-73
2022/12/15 06:53:20;;;;;;;95.75;26.08;;;;;;;;;;5072502;28;20630;-73
2022/12/15 06:55:47;;;;;;;107.57;29.85;;;;;;;;;;5072821;28;20209;-73
2022/12/15 06:58:15;;;;;;;107.13;32.60;;;;;;;;;;5072575;28;20205;-74
2022/12/15 07:00:44;;;;;;;107.38;29.90;;;;;;;;;;5071799;28;20618;-75
2022/12/15 07:03:14;;;;;;;106.72;30.45;;;;;;;;;;5072199;28;20228;-75
2022/12/15 07:05:41;;;;;;;111.10;32.90;;;;;;;;;;5072589;28;20251;-75
2022/12/15 07:08:09;;;;;;;110.22;30.48;;;;;;;;;;5072333;28;20205;-74
2022/12/15 07:10:38;;;;;;;106.15;29.90;;;;;;;;;;5071556;28;20231;-74
2022/12/15 07:13:05;;;;;;;100.20;29.52;;;;;;;;;;5072260;28;20201;-74
2022/12/15 07:15:32;;;;;;;100.00;28.88;;;;;;;;;;5072660;28;20572;-73
2022/12/15 07:18:00;;;;;;;105.25;30.08;;;;;;;;;;5072549;28;20691;-73
2022/12/15 07:20:28;;;;;;;103.20;29.80;;;;;;;;;;5072082;28;20331;-73
2022/12/15 07:22:55;;;;;;;106.38;30.65;;;;;;;;;;5072288;28;20327;-73
2022/12/15 07:25:22;;;;;;;95.47;26.60;;;;;;;;;;5072180;28;20213;-74
2022/12/15 07:27:49;;;;;;;106.72;31.13;;;;;;;;;;5072066;28;20205;-73
2022/12/15 07:30:17;;;;;;;106.03;29.38;;;;;;;;;;5071260;28;20221;-73
2022/12/15 07:32:45;;;;;;;105.82;30.52;;;;;;;;;;5072031;28;20219;-73
2022/12/15 07:35:13;;;;;;;105.72;30.15;;;;;;;;;;5071928;28;20204;-73
2022/12/15 07:37:40;;;;;;;105.03;33.30;;;;;;;;;;5071899;28;20291;-74
2022/12/15 07:40:08;;;;;;;102.75;31.25;;;;;;;;;;5071456;28;20225;-75
2022/12/15 07:42:35;;;;;;;104.03;29.80;;;;;;;;;;5071997;28;20229;-74
2022/12/15 07:45:02;;;;;;;105.25;29.23;;;;;;;;;;5072153;28;20216;-75
2022/12/15 07:47:30;;;;;;;110.20;32.67;;;;;;;;;;5072790;28;20209;-74
2022/12/15 07:49:57;;;;;;;99.75;30.10;;;;;;;;;;5071706;28;20240;-74
2022/12/15 07:52:26;;;;;;;104.53;32.53;;;;;;;;;;5072084;28;20204;-73
2022/12/15 07:54:53;;;;;;;96.22;27.80;;;;;;;;;;5071655;28;20576;-75
2022/12/15 07:57:20;;;;;;;101.72;28.98;;;;;;;;;;5071960;28;20213;-74
2022/12/15 07:59:47;;;;;;;103.70;29.73;;;;;;;;;;5071092;28;20319;-75
2022/12/15 08:02:14;;;;;;;110.95;33.17;;;;;;;;;;5071738;28;20200;-74
2022/12/15 08:04:42;;;;;;;108.82;33.53;;;;;;;;;;5071740;28;20315;-75
2022/12/15 08:07:09;;;;;;;105.28;32.53;;;;;;;;;;5071682;28;20201;-74
2022/12/15 08:09:38;;;;;;;105.65;31.45;;;;;;;;;;5070896;28;20201;-74
2022/12/15 08:12:05;;;;;;;112.80;33.83;;;;;;;;;;5071493;28;20315;-75
2022/12/15 08:14:32;;;;;;;105.18;31.20;;;;;;;;;;5071764;28;20201;-73
2022/12/15 08:16:59;;;;;;;110.47;33.00;;;;;;;;;;5071854;28;20212;-73
2022/12/15 08:19:26;;;;;;;103.30;30.92;;;;;;;;;;5070659;28;20814;-73
2022/12/15 08:21:53;;;;;;;109.90;33.75;;;;;;;;;;5071717;28;20205;-73
2022/12/15 08:24:20;;;;;;;107.63;32.53;;;;;;;;;;5073679;28;20225;-72
2022/12/15 08:26:49;;;;;;;103.80;32.05;;;;;;;;;;5075602;28;20212;-73
2022/12/15 08:29:16;;;;;;;104.43;33.67;;;;;;;;;;5074936;28;20207;-73
2022/12/15 08:31:43;;;;;;;104.30;33.00;;;;;;;;;;5075521;28;20579;-72
2022/12/15 08:34:11;;;;;;;99.35;29.42;;;;;;;;;;5075488;28;20212;-73
2022/12/15 08:36:38;;;;;;;106.25;32.50;;;;;;;;;;5075260;28;20208;-73
2022/12/15 08:39:05;;;;;;;103.72;30.88;;;;;;;;;;5074564;28;20215;-73
2022/12/15 08:41:32;;;;;;;100.30;30.10;;;;;;;;;;5075318;28;20225;-73
2022/12/15 08:44:01;;;;;;;108.72;32.00;;;;;;;;;;5074982;28;20786;-73
2022/12/15 08:46:29;;;;;;;100.22;28.63;;;;;;;;;;5075389;28;20217;-73
2022/12/15 08:48:57;;;;;;;105.75;30.02;;;;;;;;;;5074437;28;20205;-73
2022/12/15 08:51:25;;;;;;;106.03;29.48;;;;;;;;;;5074846;28;20230;-73
2022/12/15 08:53:53;;;;;;;105.38;30.42;;;;;;;;;;5075098;28;20243;-73
2022/12/15 08:56:21;;;;;;;100.60;30.88;;;;;;;;;;5075204;28;20263;-73
2022/12/15 08:58:48;;;;;;;106.68;32.22;;;;;;;;;;5074112;28;20209;-73
2022/12/15 09:01:18;;;;;;;101.68;30.25;;;;;;;;;;5074815;28;20224;-73
2022/12/15 09:03:45;;;;;;;104.78;29.77;;;;;;;;;;5074721;28;20314;-73
2022/12/15 09:06:13;;;;;;;101.75;27.58;;;;;;;;;;5074572;28;20205;-73
2022/12/15 09:08:41;;;;;;;100.88;28.52;;;;;;;;;;5074239;28;20220;-73
2022/12/15 09:11:08;;;;;;;106.65;29.92;;;;;;;;;;5074598;28;20231;-72
2022/12/15 09:13:35;;;;;;;97.70;26.60;;;;;;;;;;5074668;28;20201;-73
2022/12/15 09:16:04;;;;;;;97.65;26.30;;;;;;;;;;5074591;28;20205;-73
2022/12/15 09:18:33;;;;;;;103.30;28.35;;;;;;;;;;5074069;28;20207;-73
2022/12/15 09:21:02;;;;;;;101.07;29.42;;;;;;;;;;5074487;28;20233;-72
2022/12/15 09:23:29;;;;;;;100.43;27.42;;;;;;;;;;5074249;28;20228;-73
2022/12/15 09:26:00;;;;;;;93.95;26.65;;;;;;;;;;5074277;28;20218;-73
2022/12/15 09:28:27;;;;;;;98.60;27.65;;;;;;;;;;5074308;28;20202;-73
2022/12/15 09:30:54;;;;;;;95.82;26.50;;;;;;;;;;5073673;28;20244;-74
2022/12/15 09:33:21;;;;;;;96.82;25.65;;;;;;;;;;5074325;28;20202;-73
2022/12/15 09:35:53;;;;;;;96.78;27.67;;;;;;;;;;5073237;28;20478;-73
2022/12/15 09:38:20;;;;;;;95.40;25.30;;;;;;;;;;5074234;28;20207;-73
2022/12/15 09:40:47;;;;;;;100.72;26.70;;;;;;;;;;5073459;28;20606;-73
2022/12/15 09:43:16;;;;;;;94.53;25.83;;;;;;;;;;5074025;28;20226;-73
2022/12/15 09:45:45;;;;;;;97.15;26.17;;;;;;;;;;5074401;28;20240;-73
2022/12/15 09:48:14;;;;;;;94.63;27.20;;;;;;;;;;5074088;28;20483;-74
2022/12/15 09:50:43;;;;;;;92.05;26.08;;;;;;;;;;5073139;28;20227;-73
2022/12/15 09:53:13;;;;;;;97.53;26.90;;;;;;;;;;5074311;28;20209;-73
2022/12/15 09:55:41;;;;;;;91.80;23.35;;;;;;;;;;5074200;28;20295;-73
2022/12/15 09:58:14;;;;;;;94.82;27.15;;;;;;;;;;5073605;28;20210;-73
2022/12/15 10:00:43;;;;;;;97.28;26.10;;;;;;;;;;5073195;28;20226;-73
2022/12/15 10:03:33;;;;;;;95.22;26.08;;;;;;;;;;5073848;28;20211;-73
2022/12/15 10:06:07;;;;;;;97.18;27.15;;;;;;;;;;5073708;28;20676;-74
2022/12/15 10:08:38;;;;;;;96.30;26.73;;;;;;;;;;5072666;28;20212;-73
2022/12/15 10:11:06;;;;;;;91.28;24.58;;;;;;;;;;5073440;28;20226;-73
2022/12/15 10:13:38;;;;;;;93.32;26.25;;;;;;;;;;5073599;28;20650;-74
2022/12/15 10:16:08;;;;;;;90.30;24.15;;;;;;;;;;5073400;28;20675;-73
2022/12/15 10:18:38;;;;;;;93.05;25.35;;;;;;;;;;5072638;28;20210;-74
2022/12/15 10:21:06;;;;;;;95.25;24.45;;;;;;;;;;5073123;28;20222;-74
2022/12/15 10:23:34;;;;;;;98.55;25.70;;;;;;;;;;5073337;28;20602;-74
2022/12/15 10:26:19;;;;;;;91.72;24.45;;;;;;;;;;5073155;28;20477;-74
2022/12/15 10:29:01;;;;;;;91.93;24.77;;;;;;;;;;5072324;28;20677;-73
2022/12/15 10:31:33;;;;;;;92.50;24.98;;;;;;;;;;5072956;28;20323;-74
2022/12/15 10:34:05;;;;;;;91.88;25.52;;;;;;;;;;5073062;28;20206;-73
2022/12/15 10:36:33;;;;;;;97.60;27.67;;;;;;;;;;5073150;28;20271;-73
2022/12/15 10:39:00;;;;;;;96.18;25.00;;;;;;;;;;5072132;28;20215;-73
2022/12/15 10:41:32;;;;;;;96.43;26.70;;;;;;;;;;5072818;28;20317;-73
2022/12/15 10:44:01;;;;;;;92.45;25.75;;;;;;;;;;5072754;28;20237;-74
2022/12/15 10:46:30;;;;;;;96.70;27.15;;;;;;;;;;5072644;28;20841;-74
2022/12/15 10:48:58;;;;;;;99.50;26.40;;;;;;;;;;5072178;28;20211;-73
2022/12/15 10:51:28;;;;;;;94.60;25.73;;;;;;;;;;5072242;28;20226;-73
2022/12/15 10:54:04;;;;;;;102.22;30.25;;;;;;;;;;5072829;28;20210;-73
2022/12/15 10:56:33;;;;;;;178.18;63.72;;;;;;;;;;5072479;28;20579;-73
2022/12/15 10:59:02;;;;;;;108.78;31.23;;;;;;;;;;5064837;28;20205;-72
2022/12/15 11:01:30;;;;;;;99.15;28.00;;;;;;;;;;5069209;28;20237;-73
2022/12/15 11:03:58;;;;;;;102.03;27.60;;;;;;;;;;5070751;28;20227;-72
2022/12/15 11:06:27;;;;;;;97.78;28.73;;;;;;;;;;5071385;28;20674;-72
2022/12/15 11:08:55;;;;;;;92.43;26.38;;;;;;;;;;5070263;28;20212;-71
2022/12/15 11:14:14;;;;;;;90.45;24.75;;;;;;;;;;5071285;28;20216;-72
2022/12/15 11:16:50;;;;;;;93.05;24.67;;;;;;;;;;5072049;28;20691;-71
2022/12/15 11:19:28;;;;;;;94.35;26.13;;;;;;;;;;5070557;28;20216;-72
2022/12/15 11:21:58;;;;;;;91.17;25.23;;;;;;;;;;5071891;28;20201;-73
2022/12/15 11:24:29;;;;;;;93.68;23.83;;;;;;;;;;5071170;28;21018;-73
2022/12/15 11:26:58;;;;;;;96.15;26.40;;;;;;;;;;5071577;28;20220;-73
2022/12/15 11:29:29;;;;;;;92.63;24.80;;;;;;;;;;5070530;28;20218;-74
2022/12/15 11:31:57;;;;;;;94.28;25.42;;;;;;;;;;5070921;28;20205;-74
2022/12/15 11:34:25;;;;;;;88.43;25.08;;;;;;;;;;5071357;28;20208;-72
2022/12/15 11:37:12;;;;;;;88.50;24.70;;;;;;;;;;5071990;28;20213;-74
2022/12/15 11:39:49;;;;;;;95.88;30.25;;;;;;;;;;5071055;28;20292;-73
2022/12/15 11:42:21;;;;;;;93.55;26.77;;;;;;;;;;5072488;28;20676;-74
2022/12/15 11:44:53;;;;;;;95.05;25.70;;;;;;;;;;5071724;28;20239;-75
2022/12/15 11:47:22;;;;;;;92.95;25.10;;;;;;;;;;5071662;28;20586;-74
2022/12/15 11:49:59;;;;;;;91.25;23.70;;;;;;;;;;5070064;28;20254;-76
2022/12/15 11:52:38;;;;;;;90.45;26.23;;;;;;;;;;5070923;28;20209;-75
2022/12/15 11:55:07;;;;;;;92.63;25.50;;;;;;;;;;5072219;28;20203;-75
2022/12/15 11:57:44;;;;;;;158.05;71.75;;;;;;;;;;5071011;28;20755;-76
2022/12/15 12:00:14;;;;;;;108.38;39.50;;;;;;;;;;5070865;28;20227;-75
2022/12/15 12:02:51;;;;;;;92.43;25.30;;;;;;;;;;5071643;28;20208;-75
2022/12/15 12:05:27;;;;;;;95.28;25.77;;;;;;;;;;5071115;28;20230;-74
2022/12/15 12:07:58;;;;;;;90.85;25.10;;;;;;;;;;5071407;28;20203;-74
2022/12/15 12:10:30;;;;;;;92.25;26.13;;;;;;;;;;5070328;28;20227;-74
2022/12/15 12:13:00;;;;;;;91.90;26.65;;;;;;;;;;5064704;28;20646;-75
2022/12/15 12:15:33;;;;;;;92.72;23.85;;;;;;;;;;5070925;28;20729;-75
2022/12/15 12:18:03;;;;;;;93.80;25.10;;;;;;;;;;5071292;28;20204;-75
2022/12/15 12:20:35;;;;;;;93.60;25.75;;;;;;;;;;5071070;28;20252;-74
2022/12/15 12:23:05;;;;;;;92.45;25.42;;;;;;;;;;5071180;28;20209;-75
2022/12/15 12:25:35;;;;;;;91.35;25.50;;;;;;;;;;5070956;28;20711;-74
2022/12/15 12:28:03;;;;;;;91.63;24.50;;;;;;;;;;5070860;28;20591;-74
2022/12/15 12:30:34;;;;;;;92.75;25.05;;;;;;;;;;5069948;28;20665;-74
2022/12/15 12:33:04;;;;;;;94.13;27.80;;;;;;;;;;5070645;28;20214;-74
2022/12/15 12:35:37;;;;;;;92.43;24.63;;;;;;;;;;5070443;28;20199;-73
2022/12/15 12:38:05;;;;;;;93.38;25.52;;;;;;;;;;5071353;28;20713;-74
2022/12/15 12:40:37;;;;;;;89.97;24.88;;;;;;;;;;5070351;28;20227;-74
2022/12/15 12:43:05;;;;;;;93.03;25.23;;;;;;;;;;5071241;28;20718;-74
2022/12/15 12:45:38;;;;;;;89.70;22.75;;;;;;;;;;5071210;28;20223;-74
2022/12/15 12:48:09;;;;;;;91.95;25.45;;;;;;;;;;5070457;28;20233;-74
2022/12/15 12:50:36;;;;;;;91.78;23.77;;;;;;;;;;5069132;28;20231;-74
2022/12/15 12:53:04;;;;;;;102.53;26.48;;;;;;;;;;5069342;28;20676;-74
2022/12/15 12:55:38;;;;;;;94.57;25.15;;;;;;;;;;5070272;28;20229;-73
2022/12/15 12:58:25;;;;;;;90.78;23.45;;;;;;;;;;5070847;28;20234;-75
2022/12/15 13:01:06;;;;;;;89.53;22.27;;;;;;;;;;5070310;28;20228;-73
2022/12/15 13:03:33;;;;;;;90.70;24.20;;;;;;;;;;5071320;28;20208;-73
2022/12/15 13:06:00;;;;;;;86.68;21.38;;;;;;;;;;5070944;28;20799;-72
2022/12/15 13:08:28;;;;;;;88.82;23.40;;;;;;;;;;5071443;28;20203;-73
2022/12/15 13:10:56;;;;;;;86.00;21.55;;;;;;;;;;5073666;28;20585;-74
2022/12/15 13:13:40;;;;;;;90.07;23.17;;;;;;;;;;5073891;28;20215;-73
2022/12/15 13:16:10;;;;;;;88.00;22.20;;;;;;;;;;5073615;28;20583;-73
2022/12/15 13:18:52;;;;;;;91.57;22.38;;;;;;;;;;5073553;28;20599;-74
2022/12/15 13:21:34;;;;;;;89.53;22.40;;;;;;;;;;5073681;28;20778;-74
2022/12/15 13:24:02;;;;;;;84.45;21.05;;;;;;;;;;5073726;28;20212;-74
2022/12/15 13:26:31;;;;;;;86.63;21.10;;;;;;;;;;5074883;28;20219;-73
2022/12/15 13:28:58;;;;;;;87.80;21.40;;;;;;;;;;5073231;28;20746;-75
2022/12/15 13:31:40;;;;;;;89.35;24.60;;;;;;;;;;5073599;28;20738;-74
2022/12/15 13:34:13;;;;;;;88.32;22.23;;;;;;;;;;5073588;28;20224;-74
2022/12/15 13:36:48;;;;;;;93.45;25.50;;;;;;;;;;5073689;28;20218;-73
2022/12/15 13:39:34;;;;;;;91.20;24.17;;;;;;;;;;5073455;28;20586;-72
2022/12/15 13:42:25;;;;;;;93.30;22.50;;;;;;;;;;5073711;28;20767;-74
2022/12/15 13:44:55;;;;;;;91.95;25.13;;;;;;;;;;5075043;28;20220;-75
2022/12/15 13:47:25;;;;;;;89.60;23.08;;;;;;;;;;5073919;28;20666;-76
2022/12/15 13:49:55;;;;;;;87.25;21.00;;;;;;;;;;5072759;28;20319;-74
2022/12/15 13:52:27;;;;;;;87.78;22.42;;;;;;;;;;5073254;28;20208;-75
2022/12/15 13:54:55;;;;;;;88.47;22.30;;;;;;;;;;5073297;28;20277;-73
2022/12/15 13:57:23;;;;;;;90.00;21.67;;;;;;;;;;5073752;28;20219;-74
2022/12/15 13:59:52;;;;;;;88.93;21.77;;;;;;;;;;5073557;28;20289;-74
2022/12/15 14:02:27;;;;;;;87.22;20.77;;;;;;;;;;5074667;28;20217;-76
2022/12/15 14:05:10;;;;;;;89.95;23.67;;;;;;;;;;5073958;28;20227;-74
2022/12/15 14:07:37;;;;;;;83.25;19.80;;;;;;;;;;5078814;28;20215;-75
2022/12/15 14:10:05;;;;;;;90.05;22.00;;;;;;;;;;5074736;28;20369;-76
2022/12/15 14:12:32;;;;;;;85.47;20.30;;;;;;;;;;5072952;28;20211;-75
2022/12/15 14:14:59;;;;;;;86.55;21.73;;;;;;;;;;5073489;28;20298;-75
2022/12/15 14:17:32;;;;;;;90.15;24.63;;;;;;;;;;5073222;28;20228;-76
2022/12/15 14:20:11;;;;;;;90.50;24.35;;;;;;;;;;5074010;28;20237;-77
2022/12/15 14:22:42;;;;;;;91.18;23.25;;;;;;;;;;5072081;28;20210;-75
2022/12/15 14:25:14;;;;;;;86.90;22.05;;;;;;;;;;5073298;28;20234;-76
2022/12/15 14:27:41;;;;;;;94.68;24.98;;;;;;;;;;5073619;28;20205;-75
2022/12/15 14:30:12;;;;;;;91.65;23.92;;;;;;;;;;5072929;28;20235;-74
2022/12/15 14:32:42;;;;;;;86.88;22.80;;;;;;;;;;5073223;28;20206;-74
2022/12/15 14:35:13;;;;;;;92.65;23.38;;;;;;;;;;5073330;28;20198;-74
2022/12/15 14:37:40;;;;;;;90.45;23.65;;;;;;;;;;5073467;28;20202;-74
2022/12/15 14:40:13;;;;;;;90.45;22.52;;;;;;;;;;5072490;28;20248;-75
2022/12/15 14:42:41;;;;;;;84.05;20.02;;;;;;;;;;5072745;28;20608;-75
2022/12/15 14:45:15;;;;;;;88.68;23.02;;;;;;;;;;5074542;28;20236;-75
2022/12/15 14:47:51;;;;;;;92.63;23.50;;;;;;;;;;5073309;28;20234;-75
2022/12/15 14:50:19;;;;;;;90.95;23.35;;;;;;;;;;5072097;28;20227;-73
2022/12/15 14:52:46;;;;;;;87.97;23.83;;;;;;;;;;5072937;28;20212;-75
2022/12/15 14:55:30;;;;;;;89.00;24.05;;;;;;;;;;5072623;28;20297;-74
2022/12/15 14:57:57;;;;;;;90.03;22.67;;;;;;;;;;5073934;28;20679;-73
2022/12/15 15:00:26;;;;;;;91.40;23.38;;;;;;;;;;5071763;28;20315;-75
2022/12/15 15:03:08;;;;;;;93.82;23.05;;;;;;;;;;5073742;28;20676;-76
2022/12/15 15:05:39;;;;;;;95.00;23.92;;;;;;;;;;5072826;28;20231;-75
2022/12/15 15:08:06;;;;;;;96.03;22.67;;;;;;;;;;5072840;28;20226;-74
2022/12/15 15:10:35;;;;;;;89.93;22.23;;;;;;;;;;5071944;28;20230;-74
2022/12/15 15:13:02;;;;;;;87.00;21.63;;;;;;;;;;5074060;28;20209;-74
2022/12/15 15:15:30;;;;;;;88.10;22.23;;;;;;;;;;5072399;28;20269;-74
2022/12/15 15:17:58;;;;;;;96.22;24.70;;;;;;;;;;5072776;28;20588;-75
2022/12/15 15:20:26;;;;;;;87.35;21.80;;;;;;;;;;5071653;28;20230;-75
2022/12/15 15:23:11;;;;;;;90.47;23.33;;;;;;;;;;5072860;28;20260;-74
2022/12/15 15:25:40;;;;;;;86.07;20.45;;;;;;;;;;5072499;28;20221;-74
2022/12/15 15:28:15;;;;;;;90.03;21.75;;;;;;;;;;5071642;28;20215;-74
2022/12/15 15:30:43;;;;;;;88.00;21.80;;;;;;;;;;5071921;28;20238;-76
2022/12/15 15:33:12;;;;;;;90.97;22.33;;;;;;;;;;5073564;28;20211;-74
2022/12/15 15:35:40;;;;;;;88.03;22.63;;;;;;;;;;5072994;28;20251;-76
2022/12/15 15:38:12;;;;;;;88.70;23.70;;;;;;;;;;5071512;28;20669;-77
2022/12/15 15:40:39;;;;;;;88.10;20.05;;;;;;;;;;5071577;28;20229;-76
2022/12/15 15:43:10;;;;;;;94.72;27.13;;;;;;;;;;5072159;28;20684;-76
2022/12/15 15:45:38;;;;;;;92.00;24.95;;;;;;;;;;5072129;28;20237;-77
2022/12/15 15:48:05;;;;;;;90.18;23.17;;;;;;;;;;5071800;28;20253;-75
2022/12/15 15:50:32;;;;;;;91.53;25.00;;;;;;;;;;5070706;28;20712;-76
2022/12/15 15:52:59;;;;;;;95.68;26.33;;;;;;;;;;5071923;28;20298;-76
2022/12/15 15:55:29;;;;;;;89.25;26.65;;;;;;;;;;5072120;28;20203;-77
2022/12/15 15:57:57;;;;;;;85.93;21.75;;;;;;;;;;5071919;28;20273;-77
2022/12/15 16:00:24;;;;;;;86.72;22.35;;;;;;;;;;5071501;28;20231;-75
2022/12/15 16:02:52;;;;;;;91.45;21.35;;;;;;;;;;5071675;28;20209;-74
2022/12/15 16:05:19;;;;;;;88.63;22.17;;;;;;;;;;5071858;28;20275;-75
2022/12/15 16:07:47;;;;;;;92.97;27.23;;;;;;;;;;5071680;28;20299;-75
2022/12/15 16:10:15;;;;;;;95.55;26.70;;;;;;;;;;5071002;28;20317;-74
2022/12/15 16:12:45;;;;;;;86.43;22.15;;;;;;;;;;5071650;28;20211;-74
2022/12/15 16:15:17;;;;;;;90.82;24.35;;;;;;;;;;5071574;28;20208;-74
2022/12/15 16:17:44;;;;;;;85.47;22.60;;;;;;;;;;5072033;28;20209;-74
2022/12/15 16:20:12;;;;;;;88.53;23.35;;;;;;;;;;5070832;28;20321;-74
2022/12/15 16:22:40;;;;;;;88.15;22.85;;;;;;;;;;5071593;28;20214;-77
2022/12/15 16:25:13;;;;;;;92.47;26.08;;;;;;;;;;5071414;28;20596;-74
2022/12/15 16:27:40;;;;;;;88.32;23.52;;;;;;;;;;5071409;28;20236;-75
2022/12/15 16:30:14;;;;;;;93.25;25.05;;;;;;;;;;5060032;28;20518;-74
2022/12/15 16:32:42;;;;;;;88.20;21.45;;;;;;;;;;5063459;28;20645;-73
2022/12/15 16:35:09;;;;;;;111.35;32.60;;;;;;;;;;5052312;28;20207;-74
2022/12/15 16:37:36;;;;;;;107.65;30.40;;;;;;;;;;5052284;28;20202;-73
2022/12/15 16:40:04;;;;;;;122.75;33.70;;;;;;;;;;5060408;28;20276;-77
2022/12/15 16:42:31;;;;;;;104.03;28.13;;;;;;;;;;5053249;28;20215;-74
2022/12/15 16:44:58;;;;;;;96.18;25.58;;;;;;;;;;5052186;28;20207;-75
2022/12/15 16:47:28;;;;;;;91.72;23.92;;;;;;;;;;5055271;28;20579;-76